Sunday, May 27, 2018, 3:41 PM GMT
Back to Local

CYBG, Bagotville, Que.

Location: , , Canada Lat: 48.333
Local Time: 3:41 PM GMT (15:41 GMT) Lon: -71
Time Zone: GMT Elev: 521 ft

Show me the last for .
Show Decoded

2018-05-27 15:00 METAR CYBG 271500Z 09014KT 25SM FEW240 17/01 A3015 RMK CI2 SLP213 =
2018-05-27 14:00 METAR CYBG 271400Z 09013KT 25SM SCT240 15/01 A3017 RMK CI3 SLP221 =
2018-05-27 13:00 METAR CYBG 271300Z 09014KT 25SM SCT240 13/01 A3019 RMK CI3 SLP226 =
2018-05-27 12:00 METAR CYBG 271200Z 09013KT 25SM FEW240 11/01 A3019 RMK CI1 SLP227 =
2018-05-27 11:00 METAR CYBG 271100Z 09012KT 25SM FEW240 09/01 A3019 RMK CI1 SLP226 =
2018-05-27 10:00 METAR CYBG 271000Z 09009KT 25SM FEW240 06/01 A3019 RMK CI2 SLP226 =
2018-05-27 09:00 METAR CYBG 270900Z 11007KT 25SM FEW240 05/02 A3017 RMK CI2 SLP222 =
2018-05-27 08:00 METAR CYBG 270800Z 11007KT 25SM SKC 05/01 A3016 RMK SLP218 =
2018-05-27 07:00 METAR CYBG 270700Z 09008KT 25SM SKC 06/01 A3016 RMK SLP219 =
2018-05-27 06:00 METAR CYBG 270600Z 12006KT 25SM SKC 07/01 A3015 RMK SLP215 =
2018-05-27 05:00 METAR CYBG 270500Z 10007KT 25SM SKC 08/00 A3015 RMK SLP213 =
2018-05-27 04:00 METAR CYBG 270400Z 11007KT 25SM SKC 09/00 A3013 RMK SLP208 =
2018-05-27 03:00 METAR CYBG 270300Z 10009KT 25SM SKC 11/03 A3011 RMK SLP201 =
2018-05-27 02:00 METAR CYBG 270200Z 09010KT 25SM SKC 12/01 A3008 RMK SLP191 =
2018-05-27 01:00 METAR CYBG 270100Z 10009KT 25SM FEW240 12/04 A3005 RMK CI1 SLP181 =
2018-05-27 00:00 METAR CYBG 270000Z 07007KT 25SM FEW240 16/M01 A3003 RMK CI1 SLP172 =
2018-05-26 23:00 METAR CYBG 262300Z 06008KT 25SM FEW240 17/M02 A3000 RMK CI1 SLP162 =
2018-05-26 22:00 METAR CYBG 262200Z 08005KT 25SM FEW240 18/M00 A2997 RMK CI1 SLP153 =
2018-05-26 21:00 METAR CYBG 262100Z 35007KT 25SM FEW240 19/M00 A2995 RMK CI1 SLP147 =
2018-05-26 20:00 METAR CYBG 262000Z 32005KT 25SM FEW240 18/M01 A2994 RMK CI1 SLP141 =
2018-05-26 19:00 METAR CYBG 261900Z 35008G16KT 25SM FEW240 18/M01 A2992 RMK CI1 SLP134 =
2018-05-26 18:00 METAR CYBG 261800Z 34014KT 25SM FEW200 18/00 A2990 RMK CI1 SLP129 =
2018-05-26 17:00 METAR CYBG 261700Z 35010G17KT 25SM FEW200 17/M00 A2989 RMK CI1 SLP124 =
2018-05-26 16:00 METAR CYBG 261600Z 32010KT 25SM FEW200 16/M00 A2986 RMK CI2 SLP116 =

Support USWX by starting your Amazon purchase here.